SWR82 LSZH-KTPA
Flight info
| Callsign | SWR82 |
|---|---|
| Flight time | N/A |
| Altitude | 38000 |
| Route | VEBIT T10 TORPA DCT REKLA DCT RLP DCT ROTSI DCT AMODO DCT COHPA UM729 RESMI DCT TABOV DCT PIGOP DCT DITAL UN491 LGL UN502 ARGED DCT SENLO DCT JSY DCT GANTO DCT LARLA DCT RATKA/M086F380 DCT SOMAX NATG ELSIR/N0507F380 N402C ALLEX DCT KAYCC DCT KYLOH DCT NELIE Q75 TEUFL DCT BAAMF DADES2 |
| Aircraft | A359/H-SDE2E3GHIJ3J4J5LM1ORWXY/LB1D1 |
Departure
| Time | 2026-05-04 15:03 |
|---|---|
| Airport | Zürich Airport (LSZH) |
Arrival
| Time | N/A |
|---|---|
| Airport | Tampa International Airport (KTPA) |
| Time | Latitude | Longitude | Altitude | Speed | Heading |
|---|---|---|---|---|---|
| 2026-05-04 14:34 | 47.46045 | 8.55645 | 1403 ft | 0 kts | 6° |
| 2026-05-04 14:53 | 47.46041 | 8.55644 | 1403 ft | 4 kts | 6° |
| 2026-05-04 14:53 | 47.46016 | 8.55640 | 1407 ft | 1 kts | 6° |
| 2026-05-04 14:53 | 47.45993 | 8.55638 | 1408 ft | 4 kts | 352° |
| 2026-05-04 14:54 | 47.45970 | 8.55647 | 1411 ft | 4 kts | 325° |
| 2026-05-04 14:54 | 47.45955 | 8.55668 | 1413 ft | 4 kts | 288° |
| 2026-05-04 14:54 | 47.45951 | 8.55703 | 1411 ft | 4 kts | 276° |
| 2026-05-04 14:54 | 47.45949 | 8.55730 | 1409 ft | 1 kts | 276° |
| 2026-05-04 14:55 | 47.45953 | 8.55683 | 1413 ft | 5 kts | 276° |
| 2026-05-04 14:55 | 47.45955 | 8.55670 | 1413 ft | 0 kts | 276° |
| 2026-05-04 14:57 | 47.45955 | 8.55658 | 1413 ft | 4 kts | 274° |
| 2026-05-04 14:57 | 47.45960 | 8.55569 | 1409 ft | 13 kts | 275° |
| 2026-05-04 14:57 | 47.45970 | 8.55415 | 1408 ft | 18 kts | 275° |
| 2026-05-04 14:57 | 47.45985 | 8.55228 | 1405 ft | 17 kts | 275° |
| 2026-05-04 14:58 | 47.45995 | 8.55052 | 1409 ft | 17 kts | 275° |
| 2026-05-04 14:58 | 47.46041 | 8.54925 | 1407 ft | 12 kts | 334° |
| 2026-05-04 14:58 | 47.46124 | 8.54866 | 1407 ft | 15 kts | 335° |
| 2026-05-04 14:58 | 47.46220 | 8.54803 | 1410 ft | 16 kts | 335° |
| 2026-05-04 14:59 | 47.46322 | 8.54733 | 1409 ft | 16 kts | 335° |
| 2026-05-04 14:59 | 47.46423 | 8.54664 | 1406 ft | 16 kts | 335° |
| 2026-05-04 14:59 | 47.46632 | 8.54519 | 1411 ft | 18 kts | 335° |
| 2026-05-04 15:00 | 47.46740 | 8.54445 | 1412 ft | 17 kts | 338° |
| 2026-05-04 15:00 | 47.46851 | 8.54379 | 1410 ft | 17 kts | 337° |
| 2026-05-04 15:00 | 47.46957 | 8.54307 | 1411 ft | 18 kts | 335° |
| 2026-05-04 15:01 | 47.47208 | 8.54137 | 1410 ft | 19 kts | 335° |
| 2026-05-04 15:01 | 47.47329 | 8.54053 | 1413 ft | 19 kts | 334° |
| 2026-05-04 15:01 | 47.47447 | 8.53970 | 1411 ft | 19 kts | 334° |
| 2026-05-04 15:01 | 47.47562 | 8.53888 | 1405 ft | 18 kts | 331° |
| 2026-05-04 15:02 | 47.47601 | 8.53736 | 1413 ft | 16 kts | 253° |
| 2026-05-04 15:02 | 47.47523 | 8.53645 | 1411 ft | 16 kts | 176° |
| 2026-05-04 15:02 | 47.47350 | 8.53755 | 1410 ft | 50 kts | 155° |
| 2026-05-04 15:02 | 47.46864 | 8.54086 | 1412 ft | 102 kts | 155° |
| 2026-05-04 15:03 | 47.46074 | 8.54628 | 1412 ft | 147 kts | 155° |
| 2026-05-04 15:03 | 47.45061 | 8.55340 | 1587 ft | 164 kts | 155° |
| 2026-05-04 15:03 | 47.44077 | 8.56046 | 2207 ft | 151 kts | 155° |
| 2026-05-04 15:03 | 47.43193 | 8.56988 | 2313 ft | 171 kts | 119° |
| 2026-05-04 15:04 | 47.43074 | 8.58636 | 2517 ft | 177 kts | 71° |
| 2026-05-04 15:04 | 47.43946 | 8.60019 | 2650 ft | 188 kts | 19° |
| 2026-05-04 15:04 | 47.45261 | 8.59988 | 2711 ft | 202 kts | 333° |
| 2026-05-04 15:04 | 47.46254 | 8.58515 | 2773 ft | 216 kts | 290° |
| 2026-05-04 15:05 | 47.46365 | 8.56275 | 3105 ft | 226 kts | 260° |
| 2026-05-04 15:05 | 47.46053 | 8.53973 | 3568 ft | 230 kts | 257° |
| 2026-05-04 15:05 | 47.45722 | 8.51570 | 3834 ft | 247 kts | 261° |
| 2026-05-04 15:05 | 47.45393 | 8.48997 | 4159 ft | 260 kts | 255° |
| 2026-05-04 15:06 | 47.44647 | 8.46534 | 4651 ft | 266 kts | 238° |
| 2026-05-04 15:06 | 47.43596 | 8.44252 | 5219 ft | 270 kts | 234° |
| 2026-05-04 15:06 | 47.42504 | 8.41999 | 5892 ft | 270 kts | 233° |
| 2026-05-04 15:07 | 47.40350 | 8.37506 | 7169 ft | 271 kts | 233° |
| 2026-05-04 15:07 | 47.39273 | 8.35212 | 7746 ft | 274 kts | 234° |
| 2026-05-04 15:07 | 47.38309 | 8.32777 | 8419 ft | 276 kts | 240° |
| 2026-05-04 15:07 | 47.37409 | 8.30260 | 9067 ft | 279 kts | 240° |
| 2026-05-04 15:08 | 47.36501 | 8.27698 | 9725 ft | 283 kts | 240° |
| 2026-05-04 15:08 | 47.35581 | 8.25105 | 10263 ft | 290 kts | 240° |
| 2026-05-04 15:08 | 47.34622 | 8.22400 | 10537 ft | 305 kts | 240° |
| 2026-05-04 15:08 | 47.33610 | 8.19556 | 10807 ft | 321 kts | 240° |
| 2026-05-04 15:09 | 47.32547 | 8.16568 | 11068 ft | 336 kts | 240° |
| 2026-05-04 15:09 | 47.31436 | 8.13451 | 11332 ft | 350 kts | 241° |
| 2026-05-04 15:09 | 47.30293 | 8.10228 | 11757 ft | 358 kts | 240° |
| 2026-05-04 15:10 | 47.27990 | 8.03697 | 12911 ft | 364 kts | 243° |
| 2026-05-04 15:10 | 47.27206 | 8.00084 | 13474 ft | 371 kts | 260° |
| 2026-05-04 15:10 | 47.27397 | 7.92463 | 14581 ft | 379 kts | 275° |
| 2026-05-04 15:11 | 47.27788 | 7.88598 | 15109 ft | 382 kts | 277° |
| 2026-05-04 15:11 | 47.28230 | 7.84732 | 15670 ft | 384 kts | 277° |
| 2026-05-04 15:11 | 47.28676 | 7.80830 | 16202 ft | 386 kts | 277° |
| 2026-05-04 15:11 | 47.29102 | 7.76904 | 16735 ft | 389 kts | 276° |
| 2026-05-04 15:12 | 47.29505 | 7.72956 | 17234 ft | 391 kts | 276° |
| 2026-05-04 15:12 | 47.29894 | 7.68968 | 17762 ft | 394 kts | 275° |
| 2026-05-04 15:12 | 47.30286 | 7.65008 | 18297 ft | 397 kts | 277° |
| 2026-05-04 15:12 | 47.30928 | 7.61025 | 18742 ft | 402 kts | 282° |
| 2026-05-04 15:13 | 47.31700 | 7.57048 | 19204 ft | 405 kts | 284° |
| 2026-05-04 15:13 | 47.32540 | 7.53070 | 19636 ft | 408 kts | 284° |
| 2026-05-04 15:13 | 47.33416 | 7.49083 | 20083 ft | 410 kts | 285° |
| 2026-05-04 15:13 | 47.34307 | 7.45078 | 20589 ft | 411 kts | 284° |
| 2026-05-04 15:14 | 47.35194 | 7.41061 | 21055 ft | 413 kts | 284° |
| 2026-05-04 15:14 | 47.36078 | 7.37018 | 21528 ft | 415 kts | 284° |
| 2026-05-04 15:14 | 47.36961 | 7.32950 | 22006 ft | 418 kts | 284° |
| 2026-05-04 15:14 | 47.37844 | 7.28858 | 22492 ft | 420 kts | 284° |
| 2026-05-04 15:15 | 47.38729 | 7.24739 | 22976 ft | 422 kts | 284° |
| 2026-05-04 15:15 | 47.39613 | 7.20612 | 23505 ft | 423 kts | 283° |
| 2026-05-04 15:15 | 47.40477 | 7.16446 | 23844 ft | 425 kts | 281° |
| 2026-05-04 15:16 | 47.41854 | 7.07894 | 24515 ft | 431 kts | 278° |
| 2026-05-04 15:16 | 47.42500 | 7.03556 | 24893 ft | 433 kts | 278° |
| 2026-05-04 15:16 | 47.43765 | 6.94849 | 25595 ft | 438 kts | 278° |
| 2026-05-04 15:17 | 47.44403 | 6.90423 | 25951 ft | 441 kts | 278° |
| 2026-05-04 15:17 | 47.45690 | 6.81511 | 26642 ft | 447 kts | 278° |
| 2026-05-04 15:17 | 47.46340 | 6.77010 | 27003 ft | 449 kts | 278° |
| 2026-05-04 15:18 | 47.46995 | 6.72470 | 27323 ft | 452 kts | 278° |
| 2026-05-04 15:18 | 47.47644 | 6.67902 | 27661 ft | 454 kts | 277° |
| 2026-05-04 15:18 | 47.48106 | 6.63282 | 27996 ft | 455 kts | 273° |
| 2026-05-04 15:19 | 47.48837 | 6.53935 | 28645 ft | 459 kts | 272° |
| 2026-05-04 15:19 | 47.49169 | 6.49283 | 28980 ft | 461 kts | 271° |
| 2026-05-04 15:19 | 47.49833 | 6.39733 | 29576 ft | 466 kts | 271° |
| 2026-05-04 15:20 | 47.50160 | 6.35013 | 29849 ft | 469 kts | 271° |
| 2026-05-04 15:20 | 47.50493 | 6.30213 | 30113 ft | 471 kts | 271° |
| 2026-05-04 15:20 | 47.50829 | 6.25371 | 30359 ft | 473 kts | 271° |
| 2026-05-04 15:20 | 47.51165 | 6.20526 | 30629 ft | 474 kts | 271° |
| 2026-05-04 15:21 | 47.51500 | 6.15668 | 30884 ft | 475 kts | 271° |
| 2026-05-04 15:21 | 47.51833 | 6.10799 | 31136 ft | 476 kts | 271° |
| 2026-05-04 15:21 | 47.52497 | 6.01015 | 31644 ft | 478 kts | 271° |
| 2026-05-04 15:22 | 47.52830 | 5.96139 | 32003 ft | 476 kts | 271° |
| 2026-05-04 15:22 | 47.53395 | 5.91283 | 32356 ft | 479 kts | 279° |
| 2026-05-04 15:22 | 47.55936 | 5.82101 | 33093 ft | 489 kts | 297° |
| 2026-05-04 15:23 | 47.57948 | 5.78012 | 33411 ft | 493 kts | 305° |
| 2026-05-04 15:23 | 47.60199 | 5.74174 | 33689 ft | 494 kts | 307° |
| 2026-05-04 15:23 | 47.62518 | 5.70419 | 34034 ft | 494 kts | 308° |
| 2026-05-04 15:23 | 47.64863 | 5.66700 | 34292 ft | 493 kts | 308° |
| 2026-05-04 15:24 | 47.69500 | 5.59344 | 34762 ft | 490 kts | 308° |
| 2026-05-04 15:24 | 47.74126 | 5.51898 | 35117 ft | 489 kts | 308° |
| 2026-05-04 15:25 | 47.76424 | 5.48168 | 35301 ft | 488 kts | 307° |
| 2026-05-04 15:25 | 47.78706 | 5.44452 | 35490 ft | 488 kts | 307° |
| 2026-05-04 15:25 | 47.80998 | 5.40713 | 35662 ft | 487 kts | 307° |
| 2026-05-04 15:26 | 47.85558 | 5.33257 | 35991 ft | 486 kts | 307° |
| 2026-05-04 15:26 | 47.87828 | 5.29540 | 36141 ft | 486 kts | 308° |
| 2026-05-04 15:26 | 47.92375 | 5.22088 | 36475 ft | 485 kts | 308° |
| 2026-05-04 15:27 | 47.94642 | 5.18364 | 36634 ft | 484 kts | 308° |
| 2026-05-04 15:27 | 47.99156 | 5.10923 | 36900 ft | 484 kts | 308° |
| 2026-05-04 15:28 | 48.02906 | 5.04725 | 37104 ft | 483 kts | 308° |
| 2026-05-04 15:28 | 48.05154 | 5.01001 | 37218 ft | 483 kts | 308° |
| 2026-05-04 15:28 | 48.10390 | 4.92316 | 37461 ft | 483 kts | 308° |
| 2026-05-04 15:29 | 48.12645 | 4.88566 | 37551 ft | 484 kts | 308° |
| 2026-05-04 15:30 | 48.20863 | 4.74858 | 37985 ft | 483 kts | 308° |
| 2026-05-04 15:30 | 48.26745 | 4.62790 | 38222 ft | 473 kts | 290° |
| 2026-05-04 15:31 | 48.28620 | 4.53447 | 38393 ft | 465 kts | 276° |
| 2026-05-04 15:31 | 48.29132 | 4.48654 | 38458 ft | 465 kts | 275° |
| 2026-05-04 15:32 | 48.30415 | 4.34225 | 38651 ft | 465 kts | 274° |
| 2026-05-04 15:32 | 48.31255 | 4.24593 | 38782 ft | 465 kts | 274° |
| 2026-05-04 15:34 | 48.33395 | 4.00523 | 38953 ft | 466 kts | 274° |
| 2026-05-04 15:34 | 48.34665 | 3.86008 | 39048 ft | 467 kts | 274° |
| 2026-05-04 15:35 | 48.35916 | 3.71469 | 39128 ft | 467 kts | 274° |
| 2026-05-04 15:36 | 48.37147 | 3.56964 | 39202 ft | 468 kts | 274° |
| 2026-05-04 15:36 | 48.37960 | 3.47256 | 39256 ft | 468 kts | 274° |
| 2026-05-04 15:37 | 48.38766 | 3.37532 | 39298 ft | 468 kts | 274° |
| 2026-05-04 15:37 | 48.39564 | 3.27789 | 39343 ft | 469 kts | 274° |
| 2026-05-04 15:38 | 48.40354 | 3.18060 | 39395 ft | 469 kts | 274° |
| 2026-05-04 15:38 | 48.41136 | 3.08306 | 39435 ft | 469 kts | 274° |
| 2026-05-04 15:39 | 48.42009 | 2.98556 | 39460 ft | 471 kts | 279° |
| 2026-05-04 15:40 | 48.44574 | 2.84197 | 39512 ft | 474 kts | 283° |
| 2026-05-04 15:40 | 48.46409 | 2.74732 | 39543 ft | 474 kts | 283° |
| 2026-05-04 15:41 | 48.48244 | 2.65178 | 39578 ft | 474 kts | 283° |
| 2026-05-04 15:41 | 48.50038 | 2.55729 | 39601 ft | 474 kts | 283° |
| 2026-05-04 15:42 | 48.51843 | 2.46145 | 39644 ft | 474 kts | 283° |
| 2026-05-04 15:42 | 48.53628 | 2.36621 | 39697 ft | 475 kts | 283° |
| 2026-05-04 15:43 | 48.55426 | 2.26976 | 39756 ft | 475 kts | 283° |
| 2026-05-04 15:43 | 48.57207 | 2.17366 | 39919 ft | 475 kts | 283° |
| 2026-05-04 15:44 | 48.58666 | 2.07711 | 39937 ft | 474 kts | 278° |
| 2026-05-04 15:44 | 48.59932 | 1.97921 | 39941 ft | 475 kts | 278° |
| 2026-05-04 15:45 | 48.61231 | 1.88130 | 39944 ft | 476 kts | 279° |
| 2026-05-04 15:45 | 48.62575 | 1.78309 | 39942 ft | 477 kts | 279° |
| 2026-05-04 15:46 | 48.63928 | 1.68493 | 39946 ft | 477 kts | 279° |
| 2026-05-04 15:46 | 48.65266 | 1.58720 | 39943 ft | 478 kts | 279° |
| 2026-05-04 15:47 | 48.66595 | 1.48868 | 39946 ft | 478 kts | 279° |
| 2026-05-04 15:47 | 48.67914 | 1.38991 | 39947 ft | 479 kts | 279° |
| 2026-05-04 15:48 | 48.69230 | 1.29114 | 39948 ft | 479 kts | 279° |
| 2026-05-04 15:48 | 48.71190 | 1.14252 | 39950 ft | 480 kts | 279° |
| 2026-05-04 15:49 | 48.72486 | 1.04322 | 39958 ft | 481 kts | 279° |
| 2026-05-04 15:49 | 48.73775 | 0.94384 | 39959 ft | 481 kts | 278° |
| 2026-05-04 15:50 | 48.75065 | 0.84418 | 39963 ft | 482 kts | 279° |
| 2026-05-04 15:50 | 48.76340 | 0.74516 | 39968 ft | 482 kts | 278° |
| 2026-05-04 15:51 | 48.77613 | 0.64538 | 39965 ft | 482 kts | 278° |
| 2026-05-04 15:51 | 48.78880 | 0.54530 | 39966 ft | 483 kts | 278° |
| 2026-05-04 15:52 | 48.80370 | 0.44577 | 39966 ft | 484 kts | 283° |
| 2026-05-04 15:52 | 48.82257 | 0.34742 | 39971 ft | 485 kts | 284° |
| 2026-05-04 15:53 | 48.84132 | 0.24899 | 39970 ft | 486 kts | 283° |
| 2026-05-04 15:53 | 48.85934 | 0.15002 | 39971 ft | 486 kts | 283° |
| 2026-05-04 15:54 | 48.87686 | 0.05148 | 39978 ft | 487 kts | 283° |
| 2026-05-04 15:54 | 48.89450 | -0.04856 | 39978 ft | 487 kts | 283° |
| 2026-05-04 15:55 | 48.91188 | -0.14747 | 39976 ft | 487 kts | 283° |
| 2026-05-04 15:55 | 48.92933 | -0.24722 | 39982 ft | 488 kts | 283° |
| 2026-05-04 15:56 | 48.94643 | -0.34707 | 39980 ft | 488 kts | 282° |
| 2026-05-04 15:56 | 48.96324 | -0.44729 | 39993 ft | 489 kts | 282° |
| 2026-05-04 15:57 | 48.97998 | -0.54758 | 39994 ft | 489 kts | 282° |
| 2026-05-04 15:57 | 48.99668 | -0.64793 | 39988 ft | 489 kts | 282° |
| 2026-05-04 15:58 | 49.01335 | -0.74851 | 39983 ft | 490 kts | 282° |
| 2026-05-04 15:58 | 49.02993 | -0.84923 | 39984 ft | 490 kts | 282° |
| 2026-05-04 15:59 | 49.04634 | -0.94945 | 39982 ft | 490 kts | 282° |
| 2026-05-04 15:59 | 49.06286 | -1.05099 | 39981 ft | 491 kts | 282° |
| 2026-05-04 16:00 | 49.07908 | -1.15133 | 39978 ft | 491 kts | 282° |
| 2026-05-04 16:00 | 49.09542 | -1.25248 | 39981 ft | 491 kts | 282° |
| 2026-05-04 16:01 | 49.11182 | -1.35371 | 39980 ft | 491 kts | 282° |
| 2026-05-04 16:01 | 49.12816 | -1.45514 | 39979 ft | 492 kts | 282° |
| 2026-05-04 16:02 | 49.14439 | -1.55666 | 39978 ft | 492 kts | 282° |
| 2026-05-04 16:03 | 49.16856 | -1.70912 | 39979 ft | 492 kts | 282° |
| 2026-05-04 16:03 | 49.18459 | -1.81100 | 39982 ft | 493 kts | 282° |
| 2026-05-04 16:04 | 49.20053 | -1.91294 | 39988 ft | 493 kts | 282° |
| 2026-05-04 16:04 | 49.22219 | -2.06652 | 39995 ft | 491 kts | 276° |
| 2026-05-04 16:05 | 49.23039 | -2.16965 | 39994 ft | 492 kts | 275° |
| 2026-05-04 16:06 | 49.24136 | -2.32604 | 39994 ft | 493 kts | 274° |
| 2026-05-04 16:07 | 49.25576 | -2.53488 | 39993 ft | 493 kts | 274° |
| 2026-05-04 16:08 | 49.26987 | -2.74326 | 39993 ft | 494 kts | 274° |
| 2026-05-04 16:09 | 49.28706 | -3.00525 | 39995 ft | 495 kts | 274° |
| 2026-05-04 16:10 | 49.30039 | -3.21510 | 39991 ft | 495 kts | 274° |
| 2026-05-04 16:11 | 49.31336 | -3.42528 | 39994 ft | 495 kts | 274° |
| 2026-05-04 16:12 | 49.33206 | -3.74027 | 39996 ft | 496 kts | 274° |
| 2026-05-04 16:13 | 49.34409 | -3.95102 | 39997 ft | 496 kts | 274° |
| 2026-05-04 16:14 | 49.35478 | -4.14424 | 39993 ft | 496 kts | 273° |
| 2026-05-04 16:16 | 49.36885 | -4.40824 | 39993 ft | 497 kts | 273° |
| 2026-05-04 16:17 | 49.38232 | -4.67235 | 39999 ft | 497 kts | 273° |
| 2026-05-04 16:18 | 49.39268 | -4.88398 | 39996 ft | 497 kts | 273° |
| 2026-05-04 16:19 | 49.39879 | -5.14817 | 39997 ft | 497 kts | 268° |
| 2026-05-04 16:20 | 49.39652 | -5.41346 | 39998 ft | 497 kts | 269° |
| 2026-05-04 16:22 | 49.39539 | -5.67919 | 39996 ft | 498 kts | 269° |
| 2026-05-04 16:23 | 49.39312 | -5.99835 | 40000 ft | 498 kts | 269° |
| 2026-05-04 16:25 | 49.38998 | -6.31699 | 39998 ft | 499 kts | 268° |
| 2026-05-04 16:26 | 49.38519 | -6.68968 | 40002 ft | 499 kts | 268° |
| 2026-05-04 16:28 | 49.38104 | -6.95594 | 40003 ft | 499 kts | 268° |
| 2026-05-04 16:29 | 49.40645 | -7.32386 | 40003 ft | 499 kts | 282° |
| 2026-05-04 16:31 | 49.44335 | -7.58413 | 40001 ft | 499 kts | 282° |
| 2026-05-04 16:32 | 49.48624 | -7.89736 | 40000 ft | 499 kts | 282° |
| 2026-05-04 16:33 | 49.51242 | -8.10645 | 40008 ft | 499 kts | 278° |
| 2026-05-04 16:34 | 49.52727 | -8.26493 | 40012 ft | 499 kts | 278° |
| 2026-05-04 16:35 | 49.55822 | -8.58201 | 40017 ft | 499 kts | 279° |
| 2026-05-04 16:36 | 49.57351 | -8.74004 | 40023 ft | 499 kts | 278° |
| 2026-05-04 16:37 | 49.58861 | -8.89880 | 40026 ft | 499 kts | 278° |
| 2026-05-04 16:38 | 49.60843 | -9.11075 | 40032 ft | 499 kts | 278° |
| 2026-05-04 16:39 | 49.63263 | -9.37573 | 40041 ft | 499 kts | 278° |
| 2026-05-04 16:40 | 49.65159 | -9.58815 | 40051 ft | 499 kts | 278° |
| 2026-05-04 16:41 | 49.67467 | -9.85327 | 40060 ft | 500 kts | 278° |
| 2026-05-04 16:43 | 49.69724 | -10.11954 | 40066 ft | 500 kts | 278° |
| 2026-05-04 16:43 | 49.71048 | -10.27943 | 40068 ft | 500 kts | 278° |
| 2026-05-04 16:45 | 49.73628 | -10.59915 | 40075 ft | 500 kts | 278° |
| 2026-05-04 16:46 | 49.75714 | -10.86627 | 40086 ft | 500 kts | 278° |
| 2026-05-04 16:47 | 49.77338 | -11.08007 | 40093 ft | 500 kts | 278° |
| 2026-05-04 16:48 | 49.78920 | -11.29384 | 40101 ft | 500 kts | 278° |
| 2026-05-04 16:49 | 49.80460 | -11.50700 | 40108 ft | 500 kts | 278° |
| 2026-05-04 16:50 | 49.81965 | -11.72083 | 40117 ft | 499 kts | 278° |
| 2026-05-04 16:51 | 49.83067 | -11.88147 | 40121 ft | 499 kts | 278° |
| 2026-05-04 16:52 | 49.84497 | -12.09461 | 40130 ft | 499 kts | 278° |
| 2026-05-04 16:53 | 49.85545 | -12.25515 | 40136 ft | 499 kts | 278° |
| 2026-05-04 16:54 | 49.86909 | -12.46912 | 40145 ft | 499 kts | 277° |
| 2026-05-04 16:55 | 49.88878 | -12.78961 | 40154 ft | 499 kts | 277° |
| 2026-05-04 16:56 | 49.90451 | -13.05724 | 40164 ft | 498 kts | 277° |
| 2026-05-04 16:57 | 49.91365 | -13.21788 | 40169 ft | 498 kts | 277° |
| 2026-05-04 16:58 | 49.92551 | -13.43219 | 40176 ft | 498 kts | 277° |
| 2026-05-04 17:00 | 49.94254 | -13.75369 | 40183 ft | 498 kts | 277° |
| 2026-05-04 17:01 | 49.95605 | -14.02157 | 40192 ft | 498 kts | 277° |
| 2026-05-04 17:02 | 49.96638 | -14.23545 | 40196 ft | 497 kts | 277° |
| 2026-05-04 17:03 | 49.97389 | -14.39626 | 40200 ft | 497 kts | 277° |
| 2026-05-04 17:03 | 49.98037 | -14.53894 | 40206 ft | 497 kts | 277° |
| 2026-05-04 17:04 | 49.98975 | -14.75329 | 40209 ft | 497 kts | 276° |
| 2026-05-04 17:05 | 49.99932 | -14.96729 | 40212 ft | 495 kts | 281° |
| 2026-05-04 17:06 | 50.02667 | -15.12054 | 40218 ft | 489 kts | 291° |
| 2026-05-04 17:07 | 50.05670 | -15.25347 | 40215 ft | 489 kts | 292° |
| 2026-05-04 17:07 | 50.08289 | -15.36967 | 40218 ft | 489 kts | 291° |
| 2026-05-04 17:08 | 50.11619 | -15.51982 | 40220 ft | 489 kts | 291° |
| 2026-05-04 17:09 | 50.13822 | -15.62004 | 40223 ft | 488 kts | 291° |
| 2026-05-04 17:09 | 50.16016 | -15.72034 | 40228 ft | 488 kts | 291° |
| 2026-05-04 17:10 | 50.21464 | -15.97142 | 40228 ft | 488 kts | 291° |
| 2026-05-04 17:11 | 50.23629 | -16.07200 | 40240 ft | 488 kts | 291° |
| 2026-05-04 17:12 | 50.26842 | -16.22224 | 40237 ft | 488 kts | 291° |
| 2026-05-04 17:13 | 50.32179 | -16.47429 | 40249 ft | 488 kts | 290° |
| 2026-05-04 17:14 | 50.36409 | -16.67631 | 40252 ft | 488 kts | 290° |
| 2026-05-04 17:15 | 50.39542 | -16.82731 | 40251 ft | 487 kts | 290° |
| 2026-05-04 17:16 | 50.43706 | -17.02968 | 40261 ft | 487 kts | 290° |
| 2026-05-04 17:17 | 50.47825 | -17.23202 | 40262 ft | 486 kts | 290° |
| 2026-05-04 17:18 | 50.51896 | -17.43400 | 40265 ft | 486 kts | 290° |
| 2026-05-04 17:19 | 50.55939 | -17.63670 | 40272 ft | 485 kts | 290° |
| 2026-05-04 17:20 | 50.59942 | -17.83954 | 40277 ft | 485 kts | 290° |
| 2026-05-04 17:20 | 50.62916 | -17.99159 | 40277 ft | 484 kts | 289° |
| 2026-05-04 17:21 | 50.66850 | -18.19460 | 40292 ft | 484 kts | 289° |
| 2026-05-04 17:22 | 50.68800 | -18.29607 | 40277 ft | 484 kts | 289° |
| 2026-05-04 17:23 | 50.72662 | -18.49861 | 40288 ft | 483 kts | 289° |
| 2026-05-04 17:24 | 50.75544 | -18.65114 | 40296 ft | 483 kts | 289° |
| 2026-05-04 17:25 | 50.79348 | -18.85445 | 40299 ft | 482 kts | 289° |
| 2026-05-04 17:26 | 50.83113 | -19.05793 | 40303 ft | 482 kts | 288° |
| 2026-05-04 17:27 | 50.87746 | -19.31124 | 40312 ft | 480 kts | 287° |
| 2026-05-04 17:28 | 50.91413 | -19.51451 | 40313 ft | 479 kts | 287° |
| 2026-05-04 17:29 | 50.96844 | -19.81966 | 40325 ft | 479 kts | 287° |
| 2026-05-04 17:31 | 51.00344 | -20.07690 | 40325 ft | 480 kts | 276° |
| 2026-05-04 17:32 | 51.01428 | -20.34159 | 40329 ft | 481 kts | 275° |
| 2026-05-04 17:33 | 51.02241 | -20.55298 | 40336 ft | 481 kts | 275° |
| 2026-05-04 17:34 | 51.03029 | -20.76488 | 40342 ft | 480 kts | 274° |
| 2026-05-04 17:35 | 51.03958 | -21.02990 | 40343 ft | 480 kts | 274° |
| 2026-05-04 17:36 | 51.04313 | -21.13598 | 40346 ft | 480 kts | 274° |
| 2026-05-04 17:36 | 51.04658 | -21.24198 | 40349 ft | 480 kts | 274° |
| 2026-05-04 17:37 | 51.04994 | -21.34791 | 40352 ft | 480 kts | 274° |
| 2026-05-04 17:37 | 51.05320 | -21.45398 | 40351 ft | 480 kts | 274° |
| 2026-05-04 17:38 | 51.05636 | -21.56005 | 40358 ft | 480 kts | 274° |
| 2026-05-04 17:38 | 51.05941 | -21.66536 | 40357 ft | 480 kts | 274° |
| 2026-05-04 17:39 | 51.06383 | -21.82451 | 40357 ft | 480 kts | 274° |
| 2026-05-04 17:39 | 51.06666 | -21.93049 | 40360 ft | 480 kts | 274° |
| 2026-05-04 17:40 | 51.06939 | -22.03654 | 40364 ft | 480 kts | 274° |
| 2026-05-04 17:40 | 51.07203 | -22.14260 | 40366 ft | 480 kts | 274° |
| 2026-05-04 17:41 | 51.07457 | -22.24854 | 40366 ft | 480 kts | 273° |
| 2026-05-04 17:41 | 51.07701 | -22.35457 | 40368 ft | 479 kts | 273° |
| 2026-05-04 17:42 | 51.07935 | -22.46042 | 40369 ft | 479 kts | 273° |
| 2026-05-04 17:42 | 51.08160 | -22.56639 | 40375 ft | 479 kts | 273° |
| 2026-05-04 17:43 | 51.08375 | -22.67236 | 40371 ft | 479 kts | 273° |
| 2026-05-04 17:43 | 51.08581 | -22.77839 | 40376 ft | 479 kts | 273° |
| 2026-05-04 17:44 | 51.08777 | -22.88425 | 40381 ft | 479 kts | 273° |
| 2026-05-04 17:44 | 51.08964 | -22.99011 | 40380 ft | 479 kts | 273° |
| 2026-05-04 17:45 | 51.09140 | -23.09598 | 40379 ft | 479 kts | 272° |
| 2026-05-04 17:45 | 51.09306 | -23.20111 | 40381 ft | 479 kts | 272° |
| 2026-05-04 17:46 | 51.09464 | -23.30697 | 40382 ft | 478 kts | 272° |
| 2026-05-04 17:46 | 51.09612 | -23.41272 | 40383 ft | 478 kts | 272° |
| 2026-05-04 17:47 | 51.09751 | -23.51857 | 40383 ft | 478 kts | 272° |
| 2026-05-04 17:47 | 51.09880 | -23.62439 | 40385 ft | 478 kts | 272° |
| 2026-05-04 17:48 | 51.09999 | -23.73014 | 40397 ft | 478 kts | 272° |
| 2026-05-04 17:48 | 51.10109 | -23.83592 | 40392 ft | 478 kts | 272° |
| 2026-05-04 17:49 | 51.10209 | -23.94171 | 40387 ft | 478 kts | 272° |
| 2026-05-04 17:49 | 51.10299 | -24.04739 | 40390 ft | 478 kts | 272° |
| 2026-05-04 17:50 | 51.10381 | -24.15327 | 40394 ft | 478 kts | 272° |
| 2026-05-04 17:50 | 51.10441 | -24.24111 | 40398 ft | 478 kts | 272° |
| 2026-05-04 17:51 | 51.10504 | -24.34687 | 40404 ft | 478 kts | 272° |
| 2026-05-04 17:51 | 51.10566 | -24.46965 | 40408 ft | 477 kts | 271° |
| 2026-05-04 17:52 | 51.10603 | -24.55817 | 40396 ft | 477 kts | 271° |
| 2026-05-04 17:52 | 51.10638 | -24.66388 | 40401 ft | 477 kts | 271° |
| 2026-05-04 17:53 | 51.10663 | -24.76879 | 40404 ft | 477 kts | 271° |
| 2026-05-04 17:53 | 51.10680 | -24.87453 | 40408 ft | 477 kts | 271° |
| 2026-05-04 17:54 | 51.10686 | -24.98022 | 40413 ft | 477 kts | 271° |
| 2026-05-04 17:54 | 51.10683 | -25.08580 | 40417 ft | 477 kts | 271° |
| 2026-05-04 17:55 | 51.10670 | -25.19131 | 40408 ft | 477 kts | 271° |
| 2026-05-04 17:55 | 51.10648 | -25.29681 | 40413 ft | 477 kts | 271° |
| 2026-05-04 17:56 | 51.10617 | -25.40176 | 40415 ft | 477 kts | 271° |
| 2026-05-04 17:56 | 51.10576 | -25.50740 | 40417 ft | 477 kts | 271° |
| 2026-05-04 17:57 | 51.10526 | -25.61297 | 40411 ft | 477 kts | 271° |
| 2026-05-04 17:57 | 51.10466 | -25.71847 | 40416 ft | 477 kts | 270° |
| 2026-05-04 17:58 | 51.10396 | -25.82398 | 40414 ft | 477 kts | 270° |
| 2026-05-04 17:58 | 51.10317 | -25.92957 | 40414 ft | 477 kts | 270° |
| 2026-05-04 17:59 | 51.10229 | -26.03509 | 40417 ft | 477 kts | 270° |
| 2026-05-04 18:00 | 51.10078 | -26.19336 | 40418 ft | 477 kts | 270° |
| 2026-05-04 18:00 | 51.09966 | -26.29888 | 40421 ft | 477 kts | 270° |
| 2026-05-04 18:01 | 51.09845 | -26.40399 | 40425 ft | 477 kts | 270° |
| 2026-05-04 18:01 | 51.09714 | -26.50955 | 40423 ft | 478 kts | 270° |
| 2026-05-04 18:02 | 51.09499 | -26.66813 | 40421 ft | 478 kts | 270° |
| 2026-05-04 18:02 | 51.09344 | -26.77378 | 40428 ft | 478 kts | 270° |
| 2026-05-04 18:03 | 51.09179 | -26.87945 | 40426 ft | 478 kts | 270° |
| 2026-05-04 18:03 | 51.09005 | -26.98508 | 40418 ft | 478 kts | 270° |
| 2026-05-04 18:04 | 51.08821 | -27.09070 | 40421 ft | 478 kts | 270° |
| 2026-05-04 18:05 | 51.08527 | -27.24923 | 40423 ft | 477 kts | 270° |
| 2026-05-04 18:05 | 51.08321 | -27.35407 | 40424 ft | 477 kts | 270° |
| 2026-05-04 18:06 | 51.07992 | -27.51242 | 40425 ft | 477 kts | 269° |
| 2026-05-04 18:06 | 51.07761 | -27.61788 | 40421 ft | 477 kts | 269° |
| 2026-05-04 18:07 | 51.07521 | -27.72345 | 40425 ft | 477 kts | 269° |
| 2026-05-04 18:07 | 51.07271 | -27.82882 | 40422 ft | 477 kts | 269° |
| 2026-05-04 18:08 | 51.07011 | -27.93421 | 40424 ft | 477 kts | 269° |
| 2026-05-04 18:08 | 51.06744 | -28.03887 | 40421 ft | 477 kts | 269° |
| 2026-05-04 18:09 | 51.06179 | -28.24931 | 40422 ft | 476 kts | 269° |
| 2026-05-04 18:10 | 51.05880 | -28.35517 | 40421 ft | 476 kts | 269° |
| 2026-05-04 18:10 | 51.05574 | -28.46038 | 40425 ft | 476 kts | 269° |
| 2026-05-04 18:11 | 51.05261 | -28.56470 | 40427 ft | 476 kts | 269° |
| 2026-05-04 18:11 | 51.04937 | -28.66972 | 40420 ft | 476 kts | 269° |
| 2026-05-04 18:12 | 51.04602 | -28.77483 | 40420 ft | 476 kts | 269° |
| 2026-05-04 18:12 | 51.04258 | -28.87996 | 40422 ft | 476 kts | 269° |
| 2026-05-04 18:13 | 51.03905 | -28.98500 | 40425 ft | 476 kts | 269° |
| 2026-05-04 18:14 | 51.03358 | -29.14248 | 40422 ft | 476 kts | 269° |
| 2026-05-04 18:14 | 51.02984 | -29.24674 | 40423 ft | 476 kts | 269° |
| 2026-05-04 18:15 | 51.02203 | -29.45657 | 40422 ft | 476 kts | 269° |
| 2026-05-04 18:16 | 51.01799 | -29.56146 | 40427 ft | 476 kts | 269° |
| 2026-05-04 18:16 | 51.01385 | -29.66636 | 40420 ft | 476 kts | 268° |
| 2026-05-04 18:17 | 51.00747 | -29.82353 | 40427 ft | 476 kts | 268° |
| 2026-05-04 18:18 | 51.00114 | -29.98080 | 40421 ft | 475 kts | 271° |
| 2026-05-04 18:18 | 51.00349 | -30.08465 | 40419 ft | 473 kts | 275° |
| 2026-05-04 18:19 | 51.00993 | -30.24101 | 40423 ft | 473 kts | 276° |
| 2026-05-04 18:19 | 51.01428 | -30.34514 | 40420 ft | 473 kts | 276° |
| 2026-05-04 18:20 | 51.01844 | -30.44937 | 40421 ft | 473 kts | 276° |
| 2026-05-04 18:20 | 51.02245 | -30.55358 | 40414 ft | 473 kts | 275° |
| 2026-05-04 18:21 | 51.02633 | -30.65718 | 40418 ft | 473 kts | 275° |
| 2026-05-04 18:21 | 51.03015 | -30.76137 | 40420 ft | 472 kts | 275° |
| 2026-05-04 18:22 | 51.03388 | -30.86566 | 40415 ft | 472 kts | 275° |
| 2026-05-04 18:22 | 51.03752 | -30.96991 | 40413 ft | 472 kts | 275° |
| 2026-05-04 18:23 | 51.04106 | -31.07420 | 40412 ft | 472 kts | 275° |
| 2026-05-04 18:23 | 51.04451 | -31.17838 | 40414 ft | 472 kts | 275° |
| 2026-05-04 18:24 | 51.04784 | -31.28183 | 40411 ft | 472 kts | 275° |
| 2026-05-04 18:24 | 51.05111 | -31.38597 | 40407 ft | 472 kts | 275° |
| 2026-05-04 18:25 | 51.05427 | -31.49006 | 40406 ft | 471 kts | 275° |
| 2026-05-04 18:25 | 51.05735 | -31.59411 | 40406 ft | 471 kts | 275° |
| 2026-05-04 18:26 | 51.06033 | -31.69822 | 40404 ft | 471 kts | 275° |
| 2026-05-04 18:26 | 51.06322 | -31.80229 | 40403 ft | 471 kts | 275° |
| 2026-05-04 18:27 | 51.06601 | -31.90628 | 40403 ft | 471 kts | 275° |
| 2026-05-04 18:27 | 51.06871 | -32.01032 | 40400 ft | 471 kts | 275° |
| 2026-05-04 18:28 | 51.07132 | -32.11432 | 40400 ft | 470 kts | 275° |
| 2026-05-04 18:28 | 51.07383 | -32.21828 | 40398 ft | 470 kts | 275° |
| 2026-05-04 18:29 | 51.07625 | -32.32216 | 40395 ft | 470 kts | 275° |
| 2026-05-04 18:29 | 51.07856 | -32.42525 | 40393 ft | 469 kts | 275° |
| 2026-05-04 18:30 | 51.08188 | -32.58086 | 40391 ft | 469 kts | 275° |
| 2026-05-04 18:31 | 51.08397 | -32.68443 | 40388 ft | 468 kts | 275° |
| 2026-05-04 18:31 | 51.08597 | -32.78797 | 40387 ft | 468 kts | 275° |
| 2026-05-04 18:32 | 51.08788 | -32.89145 | 40384 ft | 468 kts | 275° |
| 2026-05-04 18:32 | 51.08969 | -32.99483 | 40383 ft | 467 kts | 275° |
| 2026-05-04 18:33 | 51.09141 | -33.09812 | 40382 ft | 467 kts | 275° |
| 2026-05-04 18:33 | 51.09304 | -33.20143 | 40380 ft | 467 kts | 275° |
| 2026-05-04 18:34 | 51.09458 | -33.30459 | 40378 ft | 466 kts | 275° |
| 2026-05-04 18:34 | 51.09603 | -33.40774 | 40378 ft | 466 kts | 275° |
| 2026-05-04 18:35 | 51.09738 | -33.51083 | 40380 ft | 466 kts | 275° |
| 2026-05-04 18:35 | 51.09864 | -33.61384 | 40375 ft | 465 kts | 275° |
| 2026-05-04 18:36 | 51.09981 | -33.71678 | 40369 ft | 465 kts | 275° |
| 2026-05-04 18:36 | 51.10089 | -33.81896 | 40367 ft | 465 kts | 275° |
| 2026-05-04 18:37 | 51.10188 | -33.92186 | 40365 ft | 465 kts | 275° |
| 2026-05-04 18:37 | 51.10278 | -34.02486 | 40367 ft | 465 kts | 274° |
| 2026-05-04 18:38 | 51.10359 | -34.12762 | 40367 ft | 464 kts | 274° |
| 2026-05-04 18:38 | 51.10431 | -34.23047 | 40367 ft | 464 kts | 274° |
| 2026-05-04 18:39 | 51.10484 | -34.31582 | 40374 ft | 464 kts | 274° |
| 2026-05-04 18:39 | 51.10540 | -34.41861 | 40363 ft | 464 kts | 274° |
| 2026-05-04 18:40 | 51.10586 | -34.52126 | 40360 ft | 464 kts | 274° |
| 2026-05-04 18:40 | 51.10623 | -34.62407 | 40364 ft | 464 kts | 274° |
| 2026-05-04 18:41 | 51.10652 | -34.72652 | 40359 ft | 463 kts | 274° |
| 2026-05-04 18:41 | 51.10671 | -34.82909 | 40358 ft | 463 kts | 274° |
| 2026-05-04 18:42 | 51.10682 | -34.93093 | 40359 ft | 462 kts | 274° |
| 2026-05-04 18:42 | 51.10684 | -35.03313 | 40358 ft | 462 kts | 274° |
| 2026-05-04 18:43 | 51.10676 | -35.13532 | 40354 ft | 461 kts | 274° |
| 2026-05-04 18:43 | 51.10660 | -35.23741 | 40354 ft | 461 kts | 274° |
| 2026-05-04 18:44 | 51.10635 | -35.33926 | 40352 ft | 460 kts | 274° |
| 2026-05-04 18:44 | 51.10602 | -35.44104 | 40349 ft | 459 kts | 274° |
| 2026-05-04 18:45 | 51.10559 | -35.54261 | 40345 ft | 459 kts | 273° |
| 2026-05-04 18:45 | 51.10507 | -35.64354 | 40346 ft | 458 kts | 273° |
| 2026-05-04 18:46 | 51.10447 | -35.74475 | 40344 ft | 458 kts | 273° |
| 2026-05-04 18:46 | 51.10413 | -35.79546 | 40346 ft | 457 kts | 273° |